Time;durP1;ratioP1;P1;durP2;ratioP2;P2;SDS_P1;SDS_P2;PMS_P1;PMS_P2;Temp;Humidity;BMP_temperature;BMP_pressure;BME280_temperature;BME280_humidity;BME280_pressure;Samples;Min_cycle;Max_cycle;Signal;HPM_P1;HPM_P2
2022/07/28 00:02:53;;;;;;;;;;;28.30;36.80;;;;;;8366662;28;19925;-44
2022/07/28 00:06:54;;;;;;;;;;;28.30;36.80;;;;;;8366651;28;19917;-44
2022/07/28 00:10:54;;;;;;;;;;;28.30;36.80;;;;;;8366135;28;20362;-45
2022/07/28 00:14:55;;;;;;;;;;;28.30;36.80;;;;;;8366829;28;19932;-44
2022/07/28 00:18:55;;;;;;;;;;;28.30;36.90;;;;;;8366204;28;19925;-44
2022/07/28 00:22:56;;;;;;;;;;;28.20;36.80;;;;;;8365763;28;19955;-46
2022/07/28 00:26:56;;;;;;;;;;;28.20;36.80;;;;;;8366160;28;19942;-44
2022/07/28 00:30:56;;;;;;;;;;;28.20;36.80;;;;;;8365182;28;19913;-45
2022/07/28 00:34:57;;;;;;;;;;;28.20;36.90;;;;;;8365883;28;19916;-44
2022/07/28 00:38:57;;;;;;;;;;;28.20;36.90;;;;;;8366140;28;19917;-46
2022/07/28 00:42:58;;;;;;;;;;;28.20;36.90;;;;;;8365687;28;20059;-44
2022/07/28 00:46:58;;;;;;;;;;;28.20;36.90;;;;;;8364999;28;20985;-45
2022/07/28 00:50:59;;;;;;;;;;;28.10;36.80;;;;;;8365611;28;19913;-45
2022/07/28 00:55:01;;;;;;;;;;;28.10;36.80;;;;;;8365534;28;19971;-45
2022/07/28 00:59:02;;;;;;;;;;;28.10;36.80;;;;;;8388959;28;19970;-45
2022/07/28 01:03:03;;;;;;;;;;;28.10;36.80;;;;;;8378377;28;19924;-44
2022/07/28 01:07:13;;;;;;;;;;;28.10;36.90;;;;;;8364998;28;19912;-45
2022/07/28 01:11:14;;;;;;;;;;;28.10;36.90;;;;;;8364346;28;19917;-44
2022/07/28 01:15:32;;;;;;;;;;;28.10;36.90;;;;;;8365091;28;19959;-45
2022/07/28 01:19:39;;;;;;;;;;;28.10;36.90;;;;;;8364498;28;19917;-45
2022/07/28 01:23:39;;;;;;;;;;;28.10;36.90;;;;;;8363946;28;19929;-45
2022/07/28 01:27:40;;;;;;;;;;;28.10;36.90;;;;;;8364334;28;20328;-44
2022/07/28 01:31:47;;;;;;;;;;;28.10;36.90;;;;;;8363812;28;19924;-42
2022/07/28 01:35:53;;;;;;;;;;;28.00;36.90;;;;;;8364468;28;20311;-44
2022/07/28 01:39:59;;;;;;;;;;;28.00;36.90;;;;;;8364257;28;20348;-45
2022/07/28 01:44:03;;;;;;;;;;;28.00;36.90;;;;;;8370274;28;19947;-44
2022/07/28 01:48:04;;;;;;;;;;;28.00;37.00;;;;;;8380223;28;20011;-45
2022/07/28 01:52:07;;;;;;;;;;;28.00;37.00;;;;;;8363796;28;19936;-44
2022/07/28 01:56:09;;;;;;;;;;;28.00;37.00;;;;;;8363409;28;19936;-44
2022/07/28 02:00:11;;;;;;;;;;;28.00;37.00;;;;;;8363715;28;19917;-45
2022/07/28 02:04:12;;;;;;;;;;;28.00;37.00;;;;;;8363476;28;20297;-44
2022/07/28 02:08:14;;;;;;;;;;;27.90;36.90;;;;;;8362786;28;19917;-44
2022/07/28 02:12:15;;;;;;;;;;;28.00;37.00;;;;;;8363258;28;19944;-44
2022/07/28 02:16:18;;;;;;;;;;;28.00;37.00;;;;;;8363500;28;19924;-46
2022/07/28 02:20:19;;;;;;;;;;;27.90;37.00;;;;;;8362919;28;19916;-45
2022/07/28 02:24:22;;;;;;;;;;;27.90;37.00;;;;;;8363257;28;19943;-45
2022/07/28 02:28:22;;;;;;;;;;;27.90;37.00;;;;;;8363144;28;19913;-45
2022/07/28 02:32:26;;;;;;;;;;;27.90;37.00;;;;;;8362530;28;19971;-44
2022/07/28 02:36:36;;;;;;;;;;;27.90;37.00;;;;;;8362896;28;19913;-44
2022/07/28 02:40:37;;;;;;;;;;;27.90;37.00;;;;;;8363077;28;20058;-45
2022/07/28 02:44:43;;;;;;;;;;;27.90;37.00;;;;;;8362238;28;19920;-45
2022/07/28 02:48:46;;;;;;;;;;;27.90;37.10;;;;;;8362886;28;19916;-45
2022/07/28 02:52:46;;;;;;;;;;;27.80;37.00;;;;;;8362158;28;20289;-45
2022/07/28 02:56:49;;;;;;;;;;;27.80;37.00;;;;;;8367037;28;19919;-46
2022/07/28 03:00:50;;;;;;;;;;;27.80;37.00;;;;;;8368797;28;19920;-45
2022/07/28 03:05:03;;;;;;;;;;;27.80;37.00;;;;;;8368680;28;20324;-45
2022/07/28 03:09:04;;;;;;;;;;;27.80;37.00;;;;;;8368622;28;20020;-45
2022/07/28 03:13:07;;;;;;;;;;;27.80;37.00;;;;;;8368683;28;19974;-45
2022/07/28 03:17:08;;;;;;;;;;;27.80;37.10;;;;;;8367957;28;19920;-44
2022/07/28 03:21:08;;;;;;;;;;;27.70;37.00;;;;;;8368332;28;19924;-45
2022/07/28 03:25:14;;;;;;;;;;;27.80;37.10;;;;;;8368057;28;19916;-44
2022/07/28 03:29:16;;;;;;;;;;;27.70;37.00;;;;;;8367512;28;19940;-44
2022/07/28 03:33:17;;;;;;;;;;;27.70;37.10;;;;;;8368094;28;20302;-44
2022/07/28 03:37:22;;;;;;;;;;;27.70;37.10;;;;;;8367861;28;19956;-45
2022/07/28 03:41:24;;;;;;;;;;;27.70;37.10;;;;;;8367394;28;20289;-43
2022/07/28 03:45:25;;;;;;;;;;;27.70;37.10;;;;;;8367371;28;20003;-45
2022/07/28 03:49:25;;;;;;;;;;;27.70;37.10;;;;;;8367358;28;20000;-44
2022/07/28 03:53:27;;;;;;;;;;;27.70;37.10;;;;;;8366732;28;19917;-45
2022/07/28 03:57:27;;;;;;;;;;;27.70;37.10;;;;;;8367315;28;19920;-45
2022/07/28 04:01:28;;;;;;;;;;;27.60;37.10;;;;;;8367083;28;20345;-43
2022/07/28 04:05:28;;;;;;;;;;;27.60;37.10;;;;;;8363727;28;19923;-44
2022/07/28 04:09:29;;;;;;;;;;;27.60;37.10;;;;;;8366479;28;20369;-44
2022/07/28 04:13:35;;;;;;;;;;;27.60;37.10;;;;;;8366604;28;19964;-44
2022/07/28 04:17:36;;;;;;;;;;;27.60;37.10;;;;;;8366034;28;20140;-44
2022/07/28 04:21:37;;;;;;;;;;;27.60;37.10;;;;;;8366945;28;19925;-44
2022/07/28 04:25:37;;;;;;;;;;;27.50;37.10;;;;;;8366344;28;19921;-44
2022/07/28 04:29:37;;;;;;;;;;;27.60;37.20;;;;;;8365647;28;20016;-44
2022/07/28 04:33:38;;;;;;;;;;;27.60;37.10;;;;;;8366172;28;20350;-45
2022/07/28 04:37:39;;;;;;;;;;;27.50;37.10;;;;;;8365773;28;19924;-44
2022/07/28 04:41:40;;;;;;;;;;;27.50;37.10;;;;;;8365548;28;19943;-44
2022/07/28 04:45:41;;;;;;;;;;;27.50;37.10;;;;;;8365581;28;20275;-44
2022/07/28 04:49:41;;;;;;;;;;;27.50;37.10;;;;;;8365150;28;19948;-42
2022/07/28 04:53:42;;;;;;;;;;;27.50;37.10;;;;;;8365255;28;19916;-44
2022/07/28 04:57:42;;;;;;;;;;;27.50;37.10;;;;;;8365358;28;19921;-44
2022/07/28 05:01:42;;;;;;;;;;;27.50;37.20;;;;;;8364744;28;19921;-43
2022/07/28 05:05:43;;;;;;;;;;;27.50;37.20;;;;;;8364864;28;19917;-45
2022/07/28 05:09:43;;;;;;;;;;;27.50;37.20;;;;;;8365079;28;19916;-45
2022/07/28 05:13:44;;;;;;;;;;;27.50;37.20;;;;;;8364167;28;19927;-45
2022/07/28 05:17:44;;;;;;;;;;;27.40;37.10;;;;;;8364177;28;19919;-45
2022/07/28 05:21:45;;;;;;;;;;;27.40;37.10;;;;;;8364498;28;19967;-45
2022/07/28 05:25:45;;;;;;;;;;;27.40;37.10;;;;;;8363717;28;20004;-45
2022/07/28 05:29:46;;;;;;;;;;;27.50;37.20;;;;;;8364148;28;19920;-44
2022/07/28 05:33:46;;;;;;;;;;;27.40;37.10;;;;;;8364102;28;19916;-45
2022/07/28 05:37:46;;;;;;;;;;;27.40;37.10;;;;;;8363458;28;20369;-45
2022/07/28 05:41:47;;;;;;;;;;;27.40;37.20;;;;;;8364097;28;19928;-46
2022/07/28 05:45:48;;;;;;;;;;;27.40;37.20;;;;;;8363806;28;19917;-46
2022/07/28 05:49:48;;;;;;;;;;;27.40;37.10;;;;;;8363338;28;19921;-46
2022/07/28 05:53:48;;;;;;;;;;;27.40;37.10;;;;;;8363814;28;19916;-44
2022/07/28 05:57:49;;;;;;;;;;;27.40;37.10;;;;;;8363595;28;20389;-44
2022/07/28 06:01:50;;;;;;;;;;;27.40;37.10;;;;;;8363143;28;19921;-45
2022/07/28 06:05:52;;;;;;;;;;;27.40;37.10;;;;;;8363251;28;19962;-44
2022/07/28 06:09:53;;;;;;;;;;;27.40;37.10;;;;;;8345513;28;19917;-44
2022/07/28 06:13:53;;;;;;;;;;;27.40;37.10;;;;;;8362850;28;19967;-45
2022/07/28 06:17:54;;;;;;;;;;;27.40;37.10;;;;;;8363178;28;19913;-46
2022/07/28 06:21:54;;;;;;;;;;;27.40;37.10;;;;;;8363241;28;19920;-47
2022/07/28 06:25:55;;;;;;;;;;;27.40;37.10;;;;;;8362522;28;19920;-45
2022/07/28 06:29:55;;;;;;;;;;;27.40;37.70;;;;;;8365012;28;19948;-45
2022/07/28 06:33:56;;;;;;;;;;;27.40;37.20;;;;;;8369684;28;19925;-45
2022/07/28 06:37:56;;;;;;;;;;;27.40;37.10;;;;;;8369345;28;20419;-44
2022/07/28 06:41:57;;;;;;;;;;;27.40;37.10;;;;;;8369344;28;19958;-46
2022/07/28 06:45:57;;;;;;;;;;;27.40;37.20;;;;;;8369388;28;20382;-45
2022/07/28 06:49:58;;;;;;;;;;;27.40;37.20;;;;;;8368834;28;19980;-46
2022/07/28 06:53:58;;;;;;;;;;;27.40;37.10;;;;;;8369055;28;19924;-44
2022/07/28 06:57:58;;;;;;;;;;;27.40;37.20;;;;;;8369112;28;19912;-44
2022/07/28 07:02:01;;;;;;;;;;;27.40;37.10;;;;;;8367238;28;19932;-44
2022/07/28 07:06:01;;;;;;;;;;;27.40;37.20;;;;;;8368963;28;19917;-45
2022/07/28 07:10:03;;;;;;;;;;;27.40;37.10;;;;;;8368602;28;20019;-46
2022/07/28 07:14:03;;;;;;;;;;;27.40;37.10;;;;;;8367922;28;19944;-45
2022/07/28 07:18:04;;;;;;;;;;;27.40;37.10;;;;;;8368585;28;19913;-46
2022/07/28 07:22:04;;;;;;;;;;;27.40;37.10;;;;;;8368052;28;19924;-45
2022/07/28 07:26:05;;;;;;;;;;;27.40;37.10;;;;;;8367576;28;19916;-44
2022/07/28 07:30:06;;;;;;;;;;;27.40;37.10;;;;;;8367932;28;19928;-45
2022/07/28 07:34:06;;;;;;;;;;;27.40;37.10;;;;;;8367786;28;19917;-45
2022/07/28 07:38:07;;;;;;;;;;;27.40;37.10;;;;;;8367419;28;19920;-45
2022/07/28 07:42:07;;;;;;;;;;;27.40;37.20;;;;;;8366994;28;19947;-45
2022/07/28 07:46:08;;;;;;;;;;;27.40;37.20;;;;;;8367479;28;19917;-45
2022/07/28 07:50:08;;;;;;;;;;;27.40;37.10;;;;;;8366835;28;19917;-45
2022/07/28 07:54:09;;;;;;;;;;;27.40;37.20;;;;;;8367054;28;19917;-45
2022/07/28 07:58:09;;;;;;;;;;;27.40;37.20;;;;;;8367182;28;19916;-45
2022/07/28 08:02:10;;;;;;;;;;;27.40;37.20;;;;;;8366347;28;19929;-46
2022/07/28 08:06:10;;;;;;;;;;;27.40;37.20;;;;;;8367060;28;19920;-45
2022/07/28 08:10:11;;;;;;;;;;;27.40;37.20;;;;;;8366803;28;19923;-45
2022/07/28 08:14:11;;;;;;;;;;;27.40;37.20;;;;;;8366170;28;19921;-46
2022/07/28 08:18:12;;;;;;;;;;;27.40;37.20;;;;;;8366741;28;19913;-47
2022/07/28 08:22:12;;;;;;;;;;;27.50;37.30;;;;;;8366253;28;19925;-45
2022/07/28 08:26:13;;;;;;;;;;;27.50;37.30;;;;;;8365837;28;19917;-45
2022/07/28 08:30:14;;;;;;;;;;;27.50;37.30;;;;;;8366208;28;20274;-46
2022/07/28 08:34:14;;;;;;;;;;;27.50;37.30;;;;;;8366147;28;19987;-45
2022/07/28 08:38:15;;;;;;;;;;;27.50;37.30;;;;;;8365724;28;19913;-45
2022/07/28 08:42:33;;;;;;;;;;;27.50;37.30;;;;;;8365842;28;19954;-45
2022/07/28 08:46:35;;;;;;;;;;;27.60;37.30;;;;;;8365674;28;19948;-45
2022/07/28 08:50:37;;;;;;;;;;;27.50;37.30;;;;;;8364899;28;19917;-45
2022/07/28 08:54:40;;;;;;;;;;;27.50;37.30;;;;;;8364611;28;19917;-44
2022/07/28 08:58:41;;;;;;;;;;;27.60;37.40;;;;;;8365179;28;19913;-45
2022/07/28 09:02:44;;;;;;;;;;;27.60;37.30;;;;;;8365305;28;19939;-44
2022/07/28 09:06:45;;;;;;;;;;;27.60;37.40;;;;;;8364772;28;19957;-45
2022/07/28 09:10:46;;;;;;;;;;;27.60;37.40;;;;;;8364082;28;19917;-46
2022/07/28 09:14:46;;;;;;;;;;;27.60;37.40;;;;;;8346678;28;20481;-46
2022/07/28 09:18:47;;;;;;;;;;;27.70;37.40;;;;;;8364842;28;19935;-44
2022/07/28 09:22:55;;;;;;;;;;;27.70;38.00;;;;;;8363828;28;20370;-45
2022/07/28 09:27:05;;;;;;;;;;;27.70;37.40;;;;;;8364556;28;19917;-47
2022/07/28 09:31:06;;;;;;;;;;;27.70;37.40;;;;;;8364357;28;19962;-45
2022/07/28 09:35:17;;;;;;;;;;;27.70;37.40;;;;;;8363625;28;19927;-44
2022/07/28 09:39:33;;;;;;;;;;;27.70;37.40;;;;;;8364098;28;20366;-44
2022/07/28 09:43:34;;;;;;;;;;;27.80;37.40;;;;;;8364147;28;19925;-45
2022/07/28 09:47:34;;;;;;;;;;;27.80;38.00;;;;;;8363256;28;19917;-46
2022/07/28 09:51:35;;;;;;;;;;;27.80;37.40;;;;;;8363571;28;20294;-44
2022/07/28 09:55:52;;;;;;;;;;;27.80;37.40;;;;;;8363631;28;20392;-45
2022/07/28 09:59:53;;;;;;;;;;;27.80;37.40;;;;;;8363639;28;20301;-45
2022/07/28 10:03:54;;;;;;;;;;;27.80;37.40;;;;;;8363634;28;19946;-45
2022/07/28 10:07:55;;;;;;;;;;;27.90;37.40;;;;;;8361416;28;19923;-45
2022/07/28 10:12:16;;;;;;;;;;;27.90;37.40;;;;;;8363521;28;20286;-46
2022/07/28 10:16:17;;;;;;;;;;;27.90;37.40;;;;;;8362774;28;19928;-45
2022/07/28 10:20:18;;;;;;;;;;;27.90;37.40;;;;;;8362650;28;19917;-45
2022/07/28 10:24:21;;;;;;;;;;;27.90;37.40;;;;;;8363210;28;19943;-45
2022/07/28 10:28:22;;;;;;;;;;;27.90;37.40;;;;;;8362805;28;19917;-45
2022/07/28 10:32:23;;;;;;;;;;;28.00;37.40;;;;;;8362333;28;19917;-47
2022/07/28 10:36:24;;;;;;;;;;;28.00;37.40;;;;;;8362615;28;19916;-46
2022/07/28 10:40:26;;;;;;;;;;;28.00;37.40;;;;;;8362872;28;19921;-45
2022/07/28 10:44:27;;;;;;;;;;;28.00;37.40;;;;;;8362748;28;19932;-46
2022/07/28 10:48:27;;;;;;;;;;;28.00;37.40;;;;;;8362619;28;20263;-45
2022/07/28 10:52:28;;;;;;;;;;;28.00;37.30;;;;;;8362660;28;19967;-45
2022/07/28 10:56:40;;;;;;;;;;;28.10;37.40;;;;;;8362053;28;19917;-45
2022/07/28 11:00:48;;;;;;;;;;;28.10;37.40;;;;;;8362580;28;19917;-45
2022/07/28 11:04:54;;;;;;;;;;;28.10;37.40;;;;;;8362029;28;20295;-45
2022/07/28 11:08:56;;;;;;;;;;;28.10;37.40;;;;;;8362669;28;19920;-45
2022/07/28 11:12:57;;;;;;;;;;;28.10;37.40;;;;;;8362197;28;19924;-45
2022/07/28 11:17:03;;;;;;;;;;;28.20;37.30;;;;;;8364938;28;19921;-46
2022/07/28 11:21:04;;;;;;;;;;;28.20;37.40;;;;;;8368123;28;20007;-46
2022/07/28 11:25:04;;;;;;;;;;;28.20;37.30;;;;;;8368317;28;20278;-47
2022/07/28 11:29:11;;;;;;;;;;;28.20;37.30;;;;;;8367967;28;19956;-45
2022/07/28 11:33:12;;;;;;;;;;;28.20;37.30;;;;;;8367974;28;20374;-45
2022/07/28 11:37:12;;;;;;;;;;;28.20;37.30;;;;;;8367652;28;19967;-45
2022/07/28 11:41:28;;;;;;;;;;;28.20;37.30;;;;;;8366903;28;19925;-45
2022/07/28 11:45:29;;;;;;;;;;;28.20;37.30;;;;;;8367617;28;19916;-45
2022/07/28 11:49:29;;;;;;;;;;;28.30;37.40;;;;;;8367672;28;20004;-45
2022/07/28 11:53:43;;;;;;;;;;;28.30;37.30;;;;;;8366688;28;19917;-45
2022/07/28 11:57:45;;;;;;;;;;;28.30;37.30;;;;;;8367164;28;19944;-45
2022/07/28 12:01:52;;;;;;;;;;;28.30;37.30;;;;;;8366395;28;19960;-43
2022/07/28 12:05:56;;;;;;;;;;;28.40;37.30;;;;;;8367105;28;19917;-45
2022/07/28 12:09:56;;;;;;;;;;;28.40;37.30;;;;;;8366981;28;20008;-45
2022/07/28 12:13:58;;;;;;;;;;;28.40;37.30;;;;;;8366258;28;20301;-45
2022/07/28 12:17:59;;;;;;;;;;;28.40;37.20;;;;;;8366497;28;19917;-45
2022/07/28 12:21:59;;;;;;;;;;;28.50;37.30;;;;;;8366395;28;19952;-45
2022/07/28 12:26:03;;;;;;;;;;;28.50;37.30;;;;;;8365906;28;20309;-45
2022/07/28 12:30:04;;;;;;;;;;;28.50;37.20;;;;;;8365330;28;19919;-45
2022/07/28 12:34:05;;;;;;;;;;;28.50;37.20;;;;;;8366257;28;20469;-45
2022/07/28 12:38:06;;;;;;;;;;;28.60;37.20;;;;;;8365307;28;19917;-45
2022/07/28 12:42:08;;;;;;;;;;;28.60;37.20;;;;;;8365716;28;19973;-46
2022/07/28 12:46:08;;;;;;;;;;;28.60;37.30;;;;;;8365628;28;20107;-44
2022/07/28 12:50:14;;;;;;;;;;;28.60;37.10;;;;;;8365294;28;19942;-45
2022/07/28 12:54:14;;;;;;;;;;;28.60;37.10;;;;;;8365628;28;20427;-45
2022/07/28 12:58:28;;;;;;;;;;;28.60;37.10;;;;;;8365335;28;19916;-45
2022/07/28 13:02:35;;;;;;;;;;;28.70;37.20;;;;;;8364427;28;19928;-45
2022/07/28 13:06:36;;;;;;;;;;;28.70;37.10;;;;;;8365188;28;20285;-44
2022/07/28 13:10:44;;;;;;;;;;;28.70;37.10;;;;;;8333528;28;19925;-46
2022/07/28 13:14:47;;;;;;;;;;;28.70;37.10;;;;;;8331887;28;19972;-45
2022/07/28 13:18:50;;;;;;;;;;;28.70;37.10;;;;;;8357500;28;19969;-44
2022/07/28 13:22:51;;;;;;;;;;;28.80;37.10;;;;;;8363765;28;19921;-45
2022/07/28 13:26:52;;;;;;;;;;;28.80;37.10;;;;;;8364585;28;19913;-45
2022/07/28 13:30:53;;;;;;;;;;;28.80;37.10;;;;;;8364392;28;19985;-46
2022/07/28 13:34:54;;;;;;;;;;;28.80;37.00;;;;;;8363969;28;19963;-45
2022/07/28 13:38:54;;;;;;;;;;;28.80;37.00;;;;;;8363626;28;20004;-46
2022/07/28 13:42:54;;;;;;;;;;;28.90;37.00;;;;;;8363719;28;19921;-45
2022/07/28 13:46:56;;;;;;;;;;;28.90;36.90;;;;;;8363084;28;19917;-45
2022/07/28 13:50:56;;;;;;;;;;;28.90;37.00;;;;;;8363480;28;19923;-45
2022/07/28 13:54:57;;;;;;;;;;;28.90;37.00;;;;;;8363673;28;19921;-46
2022/07/28 13:58:57;;;;;;;;;;;28.90;36.90;;;;;;8362961;28;20362;-46
2022/07/28 14:02:57;;;;;;;;;;;28.90;36.90;;;;;;8363271;28;19924;-45
2022/07/28 14:06:58;;;;;;;;;;;28.90;36.90;;;;;;8363486;28;19917;-45
2022/07/28 14:11:00;;;;;;;;;;;28.90;36.90;;;;;;8363075;28;19912;-46
2022/07/28 14:15:01;;;;;;;;;;;28.90;36.90;;;;;;8363257;28;19921;-45
2022/07/28 14:19:01;;;;;;;;;;;29.00;37.00;;;;;;8363157;28;20425;-45
2022/07/28 14:23:02;;;;;;;;;;;29.00;37.00;;;;;;8362731;28;19954;-45
2022/07/28 14:27:03;;;;;;;;;;;29.00;37.00;;;;;;8363309;28;20316;-45
2022/07/28 14:31:05;;;;;;;;;;;29.00;37.00;;;;;;8344766;28;20416;-45
2022/07/28 14:35:06;;;;;;;;;;;28.90;37.00;;;;;;8362492;28;19917;-44
2022/07/28 14:39:07;;;;;;;;;;;29.00;37.00;;;;;;8362744;28;20320;-45
2022/07/28 14:43:07;;;;;;;;;;;29.00;37.00;;;;;;8362732;28;20285;-45
2022/07/28 14:47:08;;;;;;;;;;;29.00;37.00;;;;;;8362210;28;20000;-45
2022/07/28 14:51:11;;;;;;;;;;;29.00;37.00;;;;;;8365026;28;19913;-45
2022/07/28 14:55:12;;;;;;;;;;;29.10;37.10;;;;;;8369137;28;19947;-45
2022/07/28 14:59:12;;;;;;;;;;;29.00;37.00;;;;;;8368482;28;19917;-47
2022/07/28 15:03:13;;;;;;;;;;;29.00;37.10;;;;;;8368759;28;19963;-45
2022/07/28 15:07:14;;;;;;;;;;;29.00;37.00;;;;;;8368417;28;19970;-45
2022/07/28 15:11:14;;;;;;;;;;;29.00;37.00;;;;;;8368191;28;20366;-45
2022/07/28 15:15:15;;;;;;;;;;;29.00;37.00;;;;;;8368503;28;19921;-45
2022/07/28 15:19:15;;;;;;;;;;;29.00;37.10;;;;;;8368212;28;19999;-46
2022/07/28 15:23:16;;;;;;;;;;;29.00;37.10;;;;;;8367582;28;19928;-45
2022/07/28 15:27:16;;;;;;;;;;;29.00;37.10;;;;;;8367945;28;19921;-44
2022/07/28 15:31:17;;;;;;;;;;;29.00;37.10;;;;;;8368047;28;20338;-46
2022/07/28 15:35:17;;;;;;;;;;;29.00;37.10;;;;;;8367358;28;19923;-45
2022/07/28 15:39:19;;;;;;;;;;;29.00;37.10;;;;;;8367667;28;19923;-46
2022/07/28 15:43:20;;;;;;;;;;;29.00;37.00;;;;;;8367587;28;19927;-44
2022/07/28 15:47:20;;;;;;;;;;;29.00;37.10;;;;;;8367104;28;19923;-45
2022/07/28 15:51:20;;;;;;;;;;;29.00;37.10;;;;;;8367498;28;19923;-44
2022/07/28 15:55:21;;;;;;;;;;;29.00;37.10;;;;;;8367275;28;19991;-45
2022/07/28 15:59:21;;;;;;;;;;;29.00;37.10;;;;;;8366537;28;19971;-44
2022/07/28 16:03:22;;;;;;;;;;;29.00;37.00;;;;;;8366729;28;19928;-45
2022/07/28 16:07:22;;;;;;;;;;;29.00;37.00;;;;;;8366088;28;20425;-44
2022/07/28 16:11:23;;;;;;;;;;;29.00;37.10;;;;;;8366440;28;19913;-44
2022/07/28 16:15:25;;;;;;;;;;;29.00;37.00;;;;;;8366696;28;19927;-44
2022/07/28 16:19:26;;;;;;;;;;;29.00;37.10;;;;;;8366582;28;19913;-44
2022/07/28 16:23:26;;;;;;;;;;;29.00;37.10;;;;;;8365638;28;19936;-44
2022/07/28 16:27:26;;;;;;;;;;;29.00;37.10;;;;;;8366223;28;19924;-44
2022/07/28 16:31:27;;;;;;;;;;;29.00;37.10;;;;;;8366327;28;19920;-45
2022/07/28 16:35:31;;;;;;;;;;;29.00;37.10;;;;;;8365507;28;19952;-45
2022/07/28 16:39:32;;;;;;;;;;;29.00;37.10;;;;;;8366070;28;20455;-45
2022/07/28 16:43:33;;;;;;;;;;;29.00;37.10;;;;;;8365737;28;19921;-45
2022/07/28 16:47:33;;;;;;;;;;;29.00;37.10;;;;;;8365039;28;19921;-45
2022/07/28 16:51:33;;;;;;;;;;;29.00;37.10;;;;;;8365797;28;19917;-45
2022/07/28 16:55:34;;;;;;;;;;;29.00;37.20;;;;;;8365347;28;19917;-44
2022/07/28 16:59:34;;;;;;;;;;;29.00;37.20;;;;;;8346800;28;19924;-44
2022/07/28 17:03:35;;;;;;;;;;;29.00;37.20;;;;;;8364623;28;20285;-44
2022/07/28 17:07:40;;;;;;;;;;;29.00;37.20;;;;;;8364904;28;19923;-44
2022/07/28 17:11:41;;;;;;;;;;;29.00;37.20;;;;;;8364639;28;19913;-44
2022/07/28 17:15:41;;;;;;;;;;;29.00;37.20;;;;;;8364298;28;19922;-44
2022/07/28 17:19:44;;;;;;;;;;;29.00;37.20;;;;;;8364177;28;19955;-46
2022/07/28 17:23:44;;;;;;;;;;;29.00;37.20;;;;;;8364502;28;19927;-44
2022/07/28 17:27:45;;;;;;;;;;;29.00;37.20;;;;;;8364246;28;19935;-44
2022/07/28 17:31:46;;;;;;;;;;;29.00;37.10;;;;;;8363991;28;20019;-44
2022/07/28 17:35:47;;;;;;;;;;;29.00;37.10;;;;;;8364259;28;19916;-44
2022/07/28 17:39:48;;;;;;;;;;;29.00;37.00;;;;;;8363995;28;19947;-44
2022/07/28 17:43:48;;;;;;;;;;;29.00;37.00;;;;;;8363176;28;19975;-45
2022/07/28 17:47:49;;;;;;;;;;;29.00;36.90;;;;;;8363727;28;20373;-44
2022/07/28 17:51:49;;;;;;;;;;;29.00;36.90;;;;;;8363874;28;19921;-44
2022/07/28 17:55:50;;;;;;;;;;;29.00;36.80;;;;;;8363148;28;19917;-44
2022/07/28 17:59:50;;;;;;;;;;;28.90;36.80;;;;;;8363869;28;20290;-44
2022/07/28 18:03:51;;;;;;;;;;;29.00;36.90;;;;;;8363404;28;20377;-45
2022/07/28 18:07:53;;;;;;;;;;;28.90;36.80;;;;;;8362990;28;19917;-45
2022/07/28 18:11:53;;;;;;;;;;;29.00;36.90;;;;;;8363664;28;19913;-44
2022/07/28 18:15:54;;;;;;;;;;;28.90;36.80;;;;;;8363259;28;19936;-44
2022/07/28 18:19:56;;;;;;;;;;;29.00;36.90;;;;;;8362667;28;19920;-45
2022/07/28 18:23:56;;;;;;;;;;;29.00;36.90;;;;;;8362987;28;19925;-44
2022/07/28 18:27:57;;;;;;;;;;;28.90;36.80;;;;;;8368106;28;20293;-44
2022/07/28 18:31:57;;;;;;;;;;;29.00;37.00;;;;;;8369622;28;20446;-45
2022/07/28 18:35:58;;;;;;;;;;;29.00;37.10;;;;;;8369692;28;19917;-45
2022/07/28 18:39:58;;;;;;;;;;;28.90;37.10;;;;;;8369598;28;19944;-44
2022/07/28 18:43:59;;;;;;;;;;;28.90;37.10;;;;;;8368747;28;20046;-45
2022/07/28 18:47:59;;;;;;;;;;;28.90;37.10;;;;;;8369323;28;19913;-45
2022/07/28 18:51:59;;;;;;;;;;;28.90;37.20;;;;;;8369397;28;19912;-45
2022/07/28 18:56:00;;;;;;;;;;;28.90;37.20;;;;;;8368357;28;19923;-45
2022/07/28 19:00:01;;;;;;;;;;;28.90;37.20;;;;;;8368942;28;19923;-45
2022/07/28 19:04:01;;;;;;;;;;;28.90;37.30;;;;;;8368686;28;19939;-45
2022/07/28 19:08:02;;;;;;;;;;;28.90;37.30;;;;;;8367025;28;20333;-44
2022/07/28 19:12:03;;;;;;;;;;;28.90;37.30;;;;;;8368755;28;19967;-45
2022/07/28 19:16:04;;;;;;;;;;;28.90;37.30;;;;;;8368722;28;19921;-45
2022/07/28 19:20:09;;;;;;;;;;;28.90;37.40;;;;;;8367810;28;20373;-45
2022/07/28 19:24:13;;;;;;;;;;;28.90;37.40;;;;;;8368296;28;20007;-45
2022/07/28 19:28:14;;;;;;;;;;;28.90;37.40;;;;;;8368654;28;20269;-45
2022/07/28 19:32:15;;;;;;;;;;;28.90;37.60;;;;;;8367746;28;19924;-45
2022/07/28 19:36:15;;;;;;;;;;;28.90;37.40;;;;;;8367365;28;19952;-45
2022/07/28 19:40:16;;;;;;;;;;;28.90;37.50;;;;;;8367952;28;19923;-45
2022/07/28 19:44:16;;;;;;;;;;;28.90;37.50;;;;;;8367009;28;19925;-45
2022/07/28 19:48:17;;;;;;;;;;;28.80;37.50;;;;;;8367544;28;19924;-45
2022/07/28 19:52:18;;;;;;;;;;;28.80;37.50;;;;;;8400443;28;19927;-45
2022/07/28 19:56:18;;;;;;;;;;;28.80;37.50;;;;;;8399800;28;19939;-46
2022/07/28 20:00:19;;;;;;;;;;;28.80;37.50;;;;;;8400195;28;20499;-46
2022/07/28 20:04:19;;;;;;;;;;;28.80;37.50;;;;;;8400047;28;19967;-45
2022/07/28 20:08:20;;;;;;;;;;;28.80;37.50;;;;;;8399733;28;19921;-46
2022/07/28 20:12:21;;;;;;;;;;;28.80;37.60;;;;;;8400147;28;19923;-45
2022/07/28 20:16:23;;;;;;;;;;;28.70;37.50;;;;;;8399913;28;20270;-45
2022/07/28 20:20:24;;;;;;;;;;;28.80;37.60;;;;;;8399026;28;19916;-45
2022/07/28 20:24:24;;;;;;;;;;;28.80;37.60;;;;;;8399803;28;20380;-46
2022/07/28 20:28:25;;;;;;;;;;;28.80;37.60;;;;;;8399774;28;19917;-45
2022/07/28 20:32:25;;;;;;;;;;;28.80;37.60;;;;;;8398689;28;19916;-44
2022/07/28 20:36:26;;;;;;;;;;;28.80;37.60;;;;;;8399188;28;19917;-45
2022/07/28 20:40:26;;;;;;;;;;;28.80;37.60;;;;;;8399049;28;19924;-45
2022/07/28 20:44:26;;;;;;;;;;;28.80;37.70;;;;;;8398248;28;20001;-45
2022/07/28 20:48:27;;;;;;;;;;;28.70;37.60;;;;;;8398316;28;20033;-45
2022/07/28 20:52:27;;;;;;;;;;;28.70;37.60;;;;;;8398389;28;19927;-44
2022/07/28 20:56:28;;;;;;;;;;;28.70;37.70;;;;;;8397848;28;19917;-45
2022/07/28 21:00:28;;;;;;;;;;;28.70;37.60;;;;;;8398469;28;20292;-45
2022/07/28 21:04:29;;;;;;;;;;;28.70;37.60;;;;;;8398054;28;19932;-45
2022/07/28 21:08:29;;;;;;;;;;;28.70;37.70;;;;;;8397744;28;19948;-45
2022/07/28 21:12:30;;;;;;;;;;;28.70;37.60;;;;;;8398128;28;19923;-44
2022/07/28 21:16:30;;;;;;;;;;;28.70;37.70;;;;;;8397863;28;19928;-44
2022/07/28 21:20:31;;;;;;;;;;;28.70;37.70;;;;;;8397149;28;19971;-45
2022/07/28 21:24:31;;;;;;;;;;;28.70;37.70;;;;;;8397359;28;19932;-45
2022/07/28 21:32:51;;;;;;;;;;;28.70;37.70;;;;;;8396907;28;19930;-44
2022/07/28 21:36:51;;;;;;;;;;;28.70;37.80;;;;;;8397045;28;20270;-45
2022/07/28 21:40:52;;;;;;;;;;;28.60;37.70;;;;;;8396511;28;19916;-44
2022/07/28 21:44:52;;;;;;;;;;;28.70;37.70;;;;;;8396920;28;20351;-44
2022/07/28 21:48:54;;;;;;;;;;;28.70;37.80;;;;;;8397172;28;20384;-44
2022/07/28 21:52:54;;;;;;;;;;;28.70;37.80;;;;;;8396278;28;19995;-44
2022/07/28 21:56:54;;;;;;;;;;;28.70;37.80;;;;;;8396811;28;20328;-46
2022/07/28 22:00:55;;;;;;;;;;;28.70;37.80;;;;;;8391335;28;20020;-44
2022/07/28 22:04:55;;;;;;;;;;;28.60;37.80;;;;;;8361345;28;19983;-45
2022/07/28 22:08:56;;;;;;;;;;;28.60;37.80;;;;;;8330841;28;20379;-44
2022/07/28 22:12:58;;;;;;;;;;;28.60;37.80;;;;;;8352567;28;19920;-44
2022/07/28 22:17:00;;;;;;;;;;;28.60;37.80;;;;;;8362819;28;19960;-44
2022/07/28 22:21:00;;;;;;;;;;;28.60;37.80;;;;;;8363045;28;19917;-44
2022/07/28 22:25:01;;;;;;;;;;;28.60;37.80;;;;;;8363247;28;19921;-45
2022/07/28 22:29:02;;;;;;;;;;;28.60;37.90;;;;;;8362819;28;20274;-45
2022/07/28 22:33:03;;;;;;;;;;;28.60;37.90;;;;;;8362939;28;19948;-46
2022/07/28 22:37:07;;;;;;;;;;;28.60;37.90;;;;;;8363091;28;19964;-45
2022/07/28 22:41:08;;;;;;;;;;;28.60;37.90;;;;;;8362318;28;19917;-46
2022/07/28 22:45:09;;;;;;;;;;;28.60;37.90;;;;;;8362859;28;19917;-44
2022/07/28 22:49:09;;;;;;;;;;;28.50;37.90;;;;;;8362914;28;19913;-45
2022/07/28 22:53:10;;;;;;;;;;;28.60;38.10;;;;;;8362203;28;19917;-45
2022/07/28 22:57:10;;;;;;;;;;;28.50;38.00;;;;;;8362611;28;19956;-45
2022/07/28 23:01:10;;;;;;;;;;;28.50;38.00;;;;;;8362402;28;19967;-45
2022/07/28 23:05:11;;;;;;;;;;;28.50;38.00;;;;;;8362017;28;20332;-44
2022/07/28 23:09:12;;;;;;;;;;;28.50;38.00;;;;;;8362863;28;19916;-45
2022/07/28 23:13:12;;;;;;;;;;;28.50;38.10;;;;;;8365962;28;20062;-45
2022/07/28 23:17:12;;;;;;;;;;;28.50;38.10;;;;;;8350288;28;19917;-46
2022/07/28 23:21:13;;;;;;;;;;;28.50;38.10;;;;;;8368323;28;19917;-45
2022/07/28 23:25:13;;;;;;;;;;;28.50;38.20;;;;;;8368249;28;19971;-45
2022/07/28 23:29:14;;;;;;;;;;;28.50;38.20;;;;;;8367983;28;20336;-46